San Juan Enterprise — WDD9563 — position and weather

sailwx.info

Track history (hours):
 
Tides and Currents Weather Stations Pressure Air Temp Water Temp Dewpoint Dewpoint Depression Visibility Wind Speed Wind Dir Waves Ship Positions

San Juan Enterprise

Owner: SAN JUAN MARINE FREIGHT CO LLC, ANACORTES, WA. More information available from US FCC via Universal Licensing System and Coast Guard Vessel Documentation Center.

Last reported at 2015-Mar-28 01:25 UTC. Time now 2015-Mar-28 01:54 UTC.
Position N 48°31' W 122°36'.

Length 30 m.

MMSI: 367313160.

Date/timePositionNaut miles runAvg speedWind from/ knotsBaromVisibWave heightAir tempDewpointWater temp
2015-Mar-28 01:25N 48°31' W 122°36'0 0.0
2015-Mar-28 00:31N 48°31' W 122°36'0 0.0
2015-Mar-27 23:33N 48°31' W 122°36'7 7.0
2015-Mar-27 22:33N 48°31' W 122°47'5 5.2
2015-Mar-27 21:33N 48°32' W 122°39'4 3.8
2015-Mar-27 20:33N 48°34' W 122°35'5 5.3
2015-Mar-27 19:33N 48°39' W 122°35'0 0.2
2015-Mar-27 18:32N 48°39' W 122°36'8 8.1
2015-Mar-27 17:33N 48°31' W 122°36'7 7.4
2015-Mar-27 16:33N 48°31' W 122°47'7 6.7
2015-Mar-27 15:33N 48°31' W 122°37'1 0.7
2015-Mar-27 14:28N 48°31' W 122°36'0 0.0
2015-Mar-27 13:22N 48°31' W 122°36'0 0.0
2015-Mar-27 12:28N 48°31' W 122°36'0 0.0
2015-Mar-27 11:28N 48°31' W 122°36'0 0.0
2015-Mar-27 10:28N 48°31' W 122°36'0 0.0
2015-Mar-27 09:28N 48°31' W 122°36'0 0.0
2015-Mar-27 08:28N 48°31' W 122°36'0 0.0
2015-Mar-27 07:28N 48°31' W 122°36'0 0.0
2015-Mar-27 06:28N 48°31' W 122°36'0 0.0
2015-Mar-27 05:28N 48°31' W 122°36'0 0.0
2015-Mar-27 04:28N 48°31' W 122°36'0 0.0
2015-Mar-27 03:28N 48°31' W 122°36'0 0.0
2015-Mar-27 02:28N 48°31' W 122°36'0 0.0
2015-Mar-27 01:28N 48°31' W 122°36'0 0.0
2015-Mar-27 00:28N 48°31' W 122°36'0 0.4
2015-Mar-26 23:33N 48°31' W 122°37'4 3.5
2015-Mar-26 22:33N 48°34' W 122°41'0 0.2
2015-Mar-26 21:33N 48°33' W 122°41'0 0.2
2015-Mar-26 20:33N 48°33' W 122°41'0 0.0
2015-Mar-26 19:33N 48°33' W 122°41'3 3.4
2015-Mar-26 18:33N 48°31' W 122°37'0 0.0
2015-Mar-26 17:33N 48°31' W 122°37'0 0.4
2015-Mar-26 16:33N 48°31' W 122°36'0 0.0
2015-Mar-26 15:33N 48°31' W 122°36'0 0.0
2015-Mar-26 14:27N 48°31' W 122°36'0 0.0
2015-Mar-26 13:33N 48°31' W 122°36'0 0.0
2015-Mar-26 12:33N 48°31' W 122°36'0 0.0
2015-Mar-26 11:33N 48°31' W 122°36'0 0.0
2015-Mar-26 10:33N 48°31' W 122°36'0 0.0
2015-Mar-26 09:33N 48°31' W 122°36'0 0.0
2015-Mar-26 08:27N 48°31' W 122°36'0 0.0
2015-Mar-26 07:33N 48°31' W 122°36'0 0.0
2015-Mar-26 06:33N 48°31' W 122°36'0 0.0
2015-Mar-26 05:33N 48°31' W 122°36'0 0.0
2015-Mar-26 04:33N 48°31' W 122°36'0 0.0
2015-Mar-26 03:33N 48°31' W 122°36'0 0.0
2015-Mar-26 02:33N 48°31' W 122°36'0 0.0
2015-Mar-26 01:33N 48°31' W 122°36'0 0.0
2015-Mar-26 00:27N 48°31' W 122°36'0 0.0
2015-Mar-25 23:33N 48°31' W 122°36'0 0.0
2015-Mar-25 22:33N 48°31' W 122°36'4 3.8
2015-Mar-25 21:33N 48°33' W 122°41'3 3.5
2015-Mar-25 20:33N 48°31' W 122°37'0 0.0
2015-Mar-25 19:33N 48°31' W 122°37'1 0.7
2015-Mar-25 18:33N 48°31' W 122°36'7 7.2
2015-Mar-25 17:33N 48°38' W 122°36'2 2.1
2015-Mar-25 16:33N 48°36' W 122°35'5 4.8
2015-Mar-25 15:33N 48°31' W 122°36'0 0.0
2015-Mar-25 14:28N 48°31' W 122°36'0 0.0
2015-Mar-25 13:28N 48°31' W 122°36'0 0.0
2015-Mar-25 12:28N 48°31' W 122°36'0 0.0
2015-Mar-25 11:28N 48°31' W 122°36'0 0.0
2015-Mar-25 10:28N 48°31' W 122°36'0 0.0
2015-Mar-25 09:28N 48°31' W 122°36'0 0.0
2015-Mar-25 08:28N 48°31' W 122°36'0 0.0
2015-Mar-25 07:28N 48°31' W 122°36'0 0.0
2015-Mar-25 06:28N 48°31' W 122°36'0 0.0
2015-Mar-25 05:28N 48°31' W 122°36'0 0.0
2015-Mar-25 04:28N 48°31' W 122°36'0 0.0
2015-Mar-25 03:28N 48°31' W 122°36'0 0.0
2015-Mar-25 02:23N 48°31' W 122°36'0 0.0
2015-Mar-25 01:28N 48°31' W 122°36'0 0.0
2015-Mar-25 00:28N 48°31' W 122°36'0 0.0
2015-Mar-24 23:28N 48°31' W 122°36'0 0.0
2015-Mar-24 22:28N 48°31' W 122°36'0 0.0
2015-Mar-24 21:31N 48°31' W 122°36'5 4.9
2015-Mar-24 20:33N 48°32' W 122°43'8 8.1
2015-Mar-24 19:33N 48°33' W 122°55'3 3.4
2015-Mar-24 18:33N 48°32' W 123°00'0 0.0
2015-Mar-24 17:33N 48°32' W 122°60'6 6.0
2015-Mar-24 16:33N 48°34' W 122°51'9 8.6
2015-Mar-24 15:33N 48°31' W 122°39'2 1.4
2015-Mar-24 14:29N 48°31' W 122°36'0 0.0
2015-Mar-24 13:29N 48°31' W 122°36'0 0.0
2015-Mar-24 12:29N 48°31' W 122°36'0 0.0
2015-Mar-24 11:29N 48°31' W 122°36'0 0.0
2015-Mar-24 10:29N 48°31' W 122°36'0 0.0
2015-Mar-24 09:29N 48°31' W 122°36'0 0.0
2015-Mar-24 08:29N 48°31' W 122°36'0 0.0
2015-Mar-24 07:29N 48°31' W 122°36'0 0.0
2015-Mar-24 06:29N 48°31' W 122°36'0 0.0
2015-Mar-24 05:23N 48°31' W 122°36'0 0.0
2015-Mar-24 04:29N 48°31' W 122°36'0 0.0
2015-Mar-24 03:29N 48°31' W 122°36'0 0.0
2015-Mar-24 02:29N 48°31' W 122°36'0 0.0
2015-Mar-24 01:23N 48°31' W 122°36'0 0.0
2015-Mar-24 00:29N 48°31' W 122°36'0 0.0
2015-Mar-23 23:30N 48°31' W 122°36'6 6.0
2015-Mar-23 22:33N 48°36' W 122°41'2 2.4
2015-Mar-23 21:33N 48°36' W 122°45'3 3.0
2015-Mar-23 20:33N 48°35' W 122°49'0 0.0
2015-Mar-23 19:33N 48°35' W 122°49'4 4.3
2015-Mar-23 18:34N 48°37' W 122°43'3 3.5
2015-Mar-23 17:33N 48°34' W 122°41'0 0.4
2015-Mar-23 16:33N 48°33' W 122°41'4 1.5
2015-Mar-23 14:09N 48°31' W 122°36'0 0.0
2015-Mar-23 13:30N 48°31' W 122°36'0 0.0
2015-Mar-23 12:30N 48°31' W 122°36'0 0.0
2015-Mar-23 11:30N 48°31' W 122°36'0 0.0
2015-Mar-23 10:30N 48°31' W 122°36'0 0.0
2015-Mar-23 09:30N 48°31' W 122°36'0 0.0
2015-Mar-23 08:30N 48°31' W 122°36'0 0.0
2015-Mar-23 07:30N 48°31' W 122°36'0 0.0
2015-Mar-23 06:30N 48°31' W 122°36'0 0.0
2015-Mar-23 05:24N 48°31' W 122°36'0 0.0
2015-Mar-23 04:30N 48°31' W 122°36'0 0.0
2015-Mar-23 03:30N 48°31' W 122°36'0 0.0
2015-Mar-23 02:30N 48°31' W 122°36'0 0.0
2015-Mar-23 01:30N 48°31' W 122°36'0 0.0
2015-Mar-23 00:30N 48°31' W 122°36'0 0.0
2015-Mar-22 23:30N 48°31' W 122°36'0 0.0
2015-Mar-22 22:30N 48°31' W 122°36'0 0.0
2015-Mar-22 21:30N 48°31' W 122°36'0 0.0
2015-Mar-22 20:30N 48°31' W 122°36'0 0.0
2015-Mar-22 19:30N 48°31' W 122°36'0 0.0
2015-Mar-22 18:30N 48°31' W 122°36'0 0.0
2015-Mar-22 17:24N 48°31' W 122°36'0 0.0
2015-Mar-22 16:30N 48°31' W 122°36'0 0.0
2015-Mar-22 15:30N 48°31' W 122°36'0 0.0
2015-Mar-22 14:30N 48°31' W 122°36'0 0.0
2015-Mar-22 13:30N 48°31' W 122°36'0 0.0
2015-Mar-22 12:30N 48°31' W 122°36'0 0.0
2015-Mar-22 11:30N 48°31' W 122°36'0 0.0
2015-Mar-22 10:30N 48°31' W 122°36'0 0.0
2015-Mar-22 09:30N 48°31' W 122°36'0 0.0
2015-Mar-22 08:30N 48°31' W 122°36'0 0.0
2015-Mar-22 07:30N 48°31' W 122°36'0 0.0
2015-Mar-22 06:30N 48°31' W 122°36'0 0.0
2015-Mar-22 05:24N 48°31' W 122°36'0 0.0
2015-Mar-22 04:30N 48°31' W 122°36'0 0.0
2015-Mar-22 03:30N 48°31' W 122°36'0 0.0
2015-Mar-22 02:29N 48°31' W 122°36'0 0.0
2015-Mar-22 01:23N 48°31' W 122°36'0 0.0
2015-Mar-22 00:29N 48°31' W 122°36'0 0.0
2015-Mar-21 23:29N 48°31' W 122°36'0 0.0
2015-Mar-21 22:29N 48°31' W 122°36'0 0.0
2015-Mar-21 21:29N 48°31' W 122°36'0 0.0
2015-Mar-21 20:29N 48°31' W 122°36'0 0.0
2015-Mar-21 19:29N 48°31' W 122°36'0 0.0
2015-Mar-21 18:29N 48°31' W 122°36'0 0.0
2015-Mar-21 17:29N 48°31' W 122°36'0 0.0
2015-Mar-21 16:29N 48°31' W 122°36'0 0.0
2015-Mar-21 15:29N 48°31' W 122°36'0 0.0
2015-Mar-21 14:29N 48°31' W 122°36'0 0.0
2015-Mar-21 13:29N 48°31' W 122°36'0 0.0
2015-Mar-21 12:29N 48°31' W 122°36'0 0.0
2015-Mar-21 11:29N 48°31' W 122°36'0 0.0
2015-Mar-21 10:29N 48°31' W 122°36'0 0.0
2015-Mar-21 09:29N 48°31' W 122°36'0 0.0
2015-Mar-21 08:29N 48°31' W 122°36'0 0.0
2015-Mar-21 07:29N 48°31' W 122°36'0 0.0
2015-Mar-21 06:29N 48°31' W 122°36'0 0.0
2015-Mar-21 05:29N 48°31' W 122°36'0 0.0
2015-Mar-21 04:23N 48°31' W 122°36'0 0.0
2015-Mar-21 03:23N 48°31' W 122°36'0 0.0
2015-Mar-21 02:23N 48°31' W 122°36'0 0.0
2015-Mar-21 01:29N 48°31' W 122°36'0 0.0
2015-Mar-21 00:23N 48°31' W 122°36'0 0.0
2015-Mar-20 23:29N 48°31' W 122°36'0 0.0
2015-Mar-20 22:29N 48°31' W 122°36'0 0.0
2015-Mar-20 21:29N 48°31' W 122°36'0 0.0
2015-Mar-20 20:11N 48°31' W 122°36'0 0.0
2015-Mar-20 19:29N 48°31' W 122°36'0 0.0
2015-Mar-20 18:29N 48°31' W 122°36'0 0.0
2015-Mar-20 17:29N 48°31' W 122°36'0 0.0
2015-Mar-20 16:29N 48°31' W 122°36'0 0.0
2015-Mar-20 15:29N 48°31' W 122°36'0 0.0
2015-Mar-20 14:29N 48°31' W 122°36'0 0.0
2015-Mar-20 13:23N 48°31' W 122°36'0 0.0
2015-Mar-20 12:29N 48°31' W 122°36'0 0.0
2015-Mar-20 11:29N 48°31' W 122°36'0 0.0
2015-Mar-20 10:29N 48°31' W 122°36'0 0.0
2015-Mar-20 09:32N 48°31' W 122°36'0 0.0
2015-Mar-20 08:29N 48°31' W 122°36'0 0.0
2015-Mar-20 07:29N 48°31' W 122°36'0 0.0
2015-Mar-20 06:18N 48°31' W 122°36'0 0.0
2015-Mar-20 05:29N 48°31' W 122°36'0 0.0
2015-Mar-20 04:29N 48°31' W 122°36'0 0.0
2015-Mar-20 03:29N 48°31' W 122°36'0 0.0
2015-Mar-20 02:26N 48°31' W 122°36'0 0.0
2015-Mar-20 01:23N 48°31' W 122°36'0 0.0
2015-Mar-20 00:17N 48°31' W 122°36'0 0.5
2015-Mar-19 23:33N 48°31' W 122°37'3 3.4
2015-Mar-19 22:34N 48°33' W 122°41'0 0.2
2015-Mar-19 21:34N 48°33' W 122°41'0 0.0
2015-Mar-19 20:34N 48°33' W 122°41'0 0.2
2015-Mar-19 19:34N 48°33' W 122°41'2 2.4
2015-Mar-19 18:34N 48°32' W 122°39'1 1.1
2015-Mar-19 17:34N 48°31' W 122°37'0 0.0
2015-Mar-19 16:34N 48°31' W 122°37'0 0.3
2015-Mar-19 15:31N 48°31' W 122°36'0 0.0
2015-Mar-19 14:31N 48°31' W 122°36'0 0.0
2015-Mar-19 13:31N 48°31' W 122°36'0 0.0
2015-Mar-19 12:31N 48°31' W 122°36'0 0.0
2015-Mar-19 11:31N 48°31' W 122°36'0 0.0
2015-Mar-19 10:25N 48°31' W 122°36'0 0.0
2015-Mar-19 09:25N 48°31' W 122°36'0 0.0
2015-Mar-19 08:31N 48°31' W 122°36'0 0.0
2015-Mar-19 07:31N 48°31' W 122°36'0 0.0
2015-Mar-19 06:31N 48°31' W 122°36'0 0.0
2015-Mar-19 05:31N 48°31' W 122°36'0 0.0
2015-Mar-19 04:31N 48°31' W 122°36'0 0.0
2015-Mar-19 03:31N 48°31' W 122°36'0 0.0
2015-Mar-19 02:31N 48°31' W 122°36'0 0.0
2015-Mar-19 01:31N 48°31' W 122°36'0 0.0
2015-Mar-19 00:31N 48°31' W 122°36'7 6.9
2015-Mar-18 23:33N 48°32' W 122°46'7 7.4
2015-Mar-18 22:33N 48°32' W 122°58'3 3.3
2015-Mar-18 21:33N 48°34' W 122°53'9 8.8
2015-Mar-18 20:33N 48°31' W 122°41'2 2.1
2015-Mar-18 19:33N 48°31' W 122°38'7 7.4
2015-Mar-18 18:33N 48°33' W 122°49'0 0.4
2015-Mar-18 17:33N 48°33' W 122°49'8 8.4
2015-Mar-18 16:33N 48°31' W 122°37'0 0.4
2015-Mar-18 15:33N 48°31' W 122°36'0 0.0
2015-Mar-18 14:33N 48°31' W 122°36'0 0.0
2015-Mar-18 13:33N 48°31' W 122°36'0 0.0
2015-Mar-18 12:33N 48°31' W 122°36'0 0.0
2015-Mar-18 11:33N 48°31' W 122°36'0 0.0
2015-Mar-18 10:33N 48°31' W 122°36'0 0.0
2015-Mar-18 09:33N 48°31' W 122°36'0 0.0
2015-Mar-18 08:33N 48°31' W 122°36'0 0.0
2015-Mar-18 07:33N 48°31' W 122°36'0 0.0
2015-Mar-18 06:33N 48°31' W 122°36'0 0.0
2015-Mar-18 05:33N 48°31' W 122°36'0 0.0
2015-Mar-18 04:33N 48°31' W 122°36'0 0.0
2015-Mar-18 03:33N 48°31' W 122°36'0 0.0
2015-Mar-18 02:27N 48°31' W 122°36'0 0.0
2015-Mar-18 01:27N 48°31' W 122°36'  
Track history (hours):
 
Tides and Currents Weather Stations Pressure Air Temp Water Temp Dewpoint Dewpoint Depression Visibility Wind Speed Wind Dir Waves Ship Positions

San Juan Enterprise

Owner: SAN JUAN MARINE FREIGHT CO LLC, ANACORTES, WA. More information available from US FCC via Universal Licensing System and Coast Guard Vessel Documentation Center.

Last reported at 2015-Mar-28 01:25 UTC. Time now 2015-Mar-28 01:54 UTC.
Position N 48°31' W 122°36'.

Length 30 m.

MMSI: 367313160.

Date/timePositionNaut miles runAvg speedWind from/ knotsBaromVisibWave heightAir tempDewpointWater temp
2015-Mar-28 01:25N 48°31' W 122°36'0 0.0
2015-Mar-28 00:31N 48°31' W 122°36'0 0.0
2015-Mar-27 23:33N 48°31' W 122°36'7 7.0
2015-Mar-27 22:33N 48°31' W 122°47'5 5.2
2015-Mar-27 21:33N 48°32' W 122°39'4 3.8
2015-Mar-27 20:33N 48°34' W 122°35'5 5.3
2015-Mar-27 19:33N 48°39' W 122°35'0 0.2
2015-Mar-27 18:32N 48°39' W 122°36'8 8.1
2015-Mar-27 17:33N 48°31' W 122°36'7 7.4
2015-Mar-27 16:33N 48°31' W 122°47'7 6.7
2015-Mar-27 15:33N 48°31' W 122°37'1 0.7
2015-Mar-27 14:28N 48°31' W 122°36'0 0.0
2015-Mar-27 13:22N 48°31' W 122°36'0 0.0
2015-Mar-27 12:28N 48°31' W 122°36'0 0.0
2015-Mar-27 11:28N 48°31' W 122°36'0 0.0
2015-Mar-27 10:28N 48°31' W 122°36'0 0.0
2015-Mar-27 09:28N 48°31' W 122°36'0 0.0
2015-Mar-27 08:28N 48°31' W 122°36'0 0.0
2015-Mar-27 07:28N 48°31' W 122°36'0 0.0
2015-Mar-27 06:28N 48°31' W 122°36'0 0.0
2015-Mar-27 05:28N 48°31' W 122°36'0 0.0
2015-Mar-27 04:28N 48°31' W 122°36'0 0.0
2015-Mar-27 03:28N 48°31' W 122°36'0 0.0
2015-Mar-27 02:28N 48°31' W 122°36'0 0.0
2015-Mar-27 01:28N 48°31' W 122°36'0 0.0
2015-Mar-27 00:28N 48°31' W 122°36'0 0.4
2015-Mar-26 23:33N 48°31' W 122°37'4 3.5
2015-Mar-26 22:33N 48°34' W 122°41'0 0.2
2015-Mar-26 21:33N 48°33' W 122°41'0 0.2
2015-Mar-26 20:33N 48°33' W 122°41'0 0.0
2015-Mar-26 19:33N 48°33' W 122°41'3 3.4
2015-Mar-26 18:33N 48°31' W 122°37'0 0.0
2015-Mar-26 17:33N 48°31' W 122°37'0 0.4
2015-Mar-26 16:33N 48°31' W 122°36'0 0.0
2015-Mar-26 15:33N 48°31' W 122°36'0 0.0
2015-Mar-26 14:27N 48°31' W 122°36'0 0.0
2015-Mar-26 13:33N 48°31' W 122°36'0 0.0
2015-Mar-26 12:33N 48°31' W 122°36'0 0.0
2015-Mar-26 11:33N 48°31' W 122°36'0 0.0
2015-Mar-26 10:33N 48°31' W 122°36'0 0.0
2015-Mar-26 09:33N 48°31' W 122°36'0 0.0
2015-Mar-26 08:27N 48°31' W 122°36'0 0.0
2015-Mar-26 07:33N 48°31' W 122°36'0 0.0
2015-Mar-26 06:33N 48°31' W 122°36'0 0.0
2015-Mar-26 05:33N 48°31' W 122°36'0 0.0
2015-Mar-26 04:33N 48°31' W 122°36'0 0.0
2015-Mar-26 03:33N 48°31' W 122°36'0 0.0
2015-Mar-26 02:33N 48°31' W 122°36'0 0.0
2015-Mar-26 01:33N 48°31' W 122°36'0 0.0
2015-Mar-26 00:27N 48°31' W 122°36'0 0.0
2015-Mar-25 23:33N 48°31' W 122°36'0 0.0
2015-Mar-25 22:33N 48°31' W 122°36'4 3.8
2015-Mar-25 21:33N 48°33' W 122°41'3 3.5
2015-Mar-25 20:33N 48°31' W 122°37'0 0.0
2015-Mar-25 19:33N 48°31' W 122°37'1 0.7
2015-Mar-25 18:33N 48°31' W 122°36'7 7.2
2015-Mar-25 17:33N 48°38' W 122°36'2 2.1
2015-Mar-25 16:33N 48°36' W 122°35'5 4.8
2015-Mar-25 15:33N 48°31' W 122°36'0 0.0
2015-Mar-25 14:28N 48°31' W 122°36'0 0.0
2015-Mar-25 13:28N 48°31' W 122°36'0 0.0
2015-Mar-25 12:28N 48°31' W 122°36'0 0.0
2015-Mar-25 11:28N 48°31' W 122°36'0 0.0
2015-Mar-25 10:28N 48°31' W 122°36'0 0.0
2015-Mar-25 09:28N 48°31' W 122°36'0 0.0
2015-Mar-25 08:28N 48°31' W 122°36'0 0.0
2015-Mar-25 07:28N 48°31' W 122°36'0 0.0
2015-Mar-25 06:28N 48°31' W 122°36'0 0.0
2015-Mar-25 05:28N 48°31' W 122°36'0 0.0
2015-Mar-25 04:28N 48°31' W 122°36'0 0.0
2015-Mar-25 03:28N 48°31' W 122°36'0 0.0
2015-Mar-25 02:23N 48°31' W 122°36'0 0.0
2015-Mar-25 01:28N 48°31' W 122°36'0 0.0
2015-Mar-25 00:28N 48°31' W 122°36'0 0.0
2015-Mar-24 23:28N 48°31' W 122°36'0 0.0
2015-Mar-24 22:28N 48°31' W 122°36'0 0.0
2015-Mar-24 21:31N 48°31' W 122°36'5 4.9
2015-Mar-24 20:33N 48°32' W 122°43'8 8.1
2015-Mar-24 19:33N 48°33' W 122°55'3 3.4
2015-Mar-24 18:33N 48°32' W 123°00'0 0.0
2015-Mar-24 17:33N 48°32' W 122°60'6 6.0
2015-Mar-24 16:33N 48°34' W 122°51'9 8.6
2015-Mar-24 15:33N 48°31' W 122°39'2 1.4
2015-Mar-24 14:29N 48°31' W 122°36'0 0.0
2015-Mar-24 13:29N 48°31' W 122°36'0 0.0
2015-Mar-24 12:29N 48°31' W 122°36'0 0.0
2015-Mar-24 11:29N 48°31' W 122°36'0 0.0
2015-Mar-24 10:29N 48°31' W 122°36'0 0.0
2015-Mar-24 09:29N 48°31' W 122°36'0 0.0
2015-Mar-24 08:29N 48°31' W 122°36'0 0.0
2015-Mar-24 07:29N 48°31' W 122°36'0 0.0
2015-Mar-24 06:29N 48°31' W 122°36'0 0.0
2015-Mar-24 05:23N 48°31' W 122°36'0 0.0
2015-Mar-24 04:29N 48°31' W 122°36'0 0.0
2015-Mar-24 03:29N 48°31' W 122°36'0 0.0
2015-Mar-24 02:29N 48°31' W 122°36'0 0.0
2015-Mar-24 01:23N 48°31' W 122°36'0 0.0
2015-Mar-24 00:29N 48°31' W 122°36'0 0.0
2015-Mar-23 23:30N 48°31' W 122°36'6 6.0
2015-Mar-23 22:33N 48°36' W 122°41'2 2.4
2015-Mar-23 21:33N 48°36' W 122°45'3 3.0
2015-Mar-23 20:33N 48°35' W 122°49'0 0.0
2015-Mar-23 19:33N 48°35' W 122°49'4 4.3
2015-Mar-23 18:34N 48°37' W 122°43'3 3.5
2015-Mar-23 17:33N 48°34' W 122°41'0 0.4
2015-Mar-23 16:33N 48°33' W 122°41'4 1.5
2015-Mar-23 14:09N 48°31' W 122°36'0 0.0
2015-Mar-23 13:30N 48°31' W 122°36'0 0.0
2015-Mar-23 12:30N 48°31' W 122°36'0 0.0
2015-Mar-23 11:30N 48°31' W 122°36'0 0.0
2015-Mar-23 10:30N 48°31' W 122°36'0 0.0
2015-Mar-23 09:30N 48°31' W 122°36'0 0.0
2015-Mar-23 08:30N 48°31' W 122°36'0 0.0
2015-Mar-23 07:30N 48°31' W 122°36'0 0.0
2015-Mar-23 06:30N 48°31' W 122°36'0 0.0
2015-Mar-23 05:24N 48°31' W 122°36'0 0.0
2015-Mar-23 04:30N 48°31' W 122°36'0 0.0
2015-Mar-23 03:30N 48°31' W 122°36'0 0.0
2015-Mar-23 02:30N 48°31' W 122°36'0 0.0
2015-Mar-23 01:30N 48°31' W 122°36'0 0.0
2015-Mar-23 00:30N 48°31' W 122°36'0 0.0
2015-Mar-22 23:30N 48°31' W 122°36'0 0.0
2015-Mar-22 22:30N 48°31' W 122°36'0 0.0
2015-Mar-22 21:30N 48°31' W 122°36'0 0.0
2015-Mar-22 20:30N 48°31' W 122°36'0 0.0
2015-Mar-22 19:30N 48°31' W 122°36'0 0.0
2015-Mar-22 18:30N 48°31' W 122°36'0 0.0
2015-Mar-22 17:24N 48°31' W 122°36'0 0.0
2015-Mar-22 16:30N 48°31' W 122°36'0 0.0
2015-Mar-22 15:30N 48°31' W 122°36'0 0.0
2015-Mar-22 14:30N 48°31' W 122°36'0 0.0
2015-Mar-22 13:30N 48°31' W 122°36'0 0.0
2015-Mar-22 12:30N 48°31' W 122°36'0 0.0
2015-Mar-22 11:30N 48°31' W 122°36'0 0.0
2015-Mar-22 10:30N 48°31' W 122°36'0 0.0
2015-Mar-22 09:30N 48°31' W 122°36'0 0.0
2015-Mar-22 08:30N 48°31' W 122°36'0 0.0
2015-Mar-22 07:30N 48°31' W 122°36'0 0.0
2015-Mar-22 06:30N 48°31' W 122°36'0 0.0
2015-Mar-22 05:24N 48°31' W 122°36'0 0.0
2015-Mar-22 04:30N 48°31' W 122°36'0 0.0
2015-Mar-22 03:30N 48°31' W 122°36'0 0.0
2015-Mar-22 02:29N 48°31' W 122°36'0 0.0
2015-Mar-22 01:23N 48°31' W 122°36'0 0.0
2015-Mar-22 00:29N 48°31' W 122°36'0 0.0
2015-Mar-21 23:29N 48°31' W 122°36'0 0.0
2015-Mar-21 22:29N 48°31' W 122°36'0 0.0
2015-Mar-21 21:29N 48°31' W 122°36'0 0.0
2015-Mar-21 20:29N 48°31' W 122°36'0 0.0
2015-Mar-21 19:29N 48°31' W 122°36'0 0.0
2015-Mar-21 18:29N 48°31' W 122°36'0 0.0
2015-Mar-21 17:29N 48°31' W 122°36'0 0.0
2015-Mar-21 16:29N 48°31' W 122°36'0 0.0
2015-Mar-21 15:29N 48°31' W 122°36'0 0.0
2015-Mar-21 14:29N 48°31' W 122°36'0 0.0
2015-Mar-21 13:29N 48°31' W 122°36'0 0.0
2015-Mar-21 12:29N 48°31' W 122°36'0 0.0
2015-Mar-21 11:29N 48°31' W 122°36'0 0.0
2015-Mar-21 10:29N 48°31' W 122°36'0 0.0
2015-Mar-21 09:29N 48°31' W 122°36'0 0.0
2015-Mar-21 08:29N 48°31' W 122°36'0 0.0
2015-Mar-21 07:29N 48°31' W 122°36'0 0.0
2015-Mar-21 06:29N 48°31' W 122°36'0 0.0
2015-Mar-21 05:29N 48°31' W 122°36'0 0.0
2015-Mar-21 04:23N 48°31' W 122°36'0 0.0
2015-Mar-21 03:23N 48°31' W 122°36'0 0.0
2015-Mar-21 02:23N 48°31' W 122°36'0 0.0
2015-Mar-21 01:29N 48°31' W 122°36'0 0.0
2015-Mar-21 00:23N 48°31' W 122°36'0 0.0
2015-Mar-20 23:29N 48°31' W 122°36'0 0.0
2015-Mar-20 22:29N 48°31' W 122°36'0 0.0
2015-Mar-20 21:29N 48°31' W 122°36'0 0.0
2015-Mar-20 20:11N 48°31' W 122°36'0 0.0
2015-Mar-20 19:29N 48°31' W 122°36'0 0.0
2015-Mar-20 18:29N 48°31' W 122°36'0 0.0
2015-Mar-20 17:29N 48°31' W 122°36'0 0.0
2015-Mar-20 16:29N 48°31' W 122°36'0 0.0
2015-Mar-20 15:29N 48°31' W 122°36'0 0.0
2015-Mar-20 14:29N 48°31' W 122°36'0 0.0
2015-Mar-20 13:23N 48°31' W 122°36'0 0.0
2015-Mar-20 12:29N 48°31' W 122°36'0 0.0
2015-Mar-20 11:29N 48°31' W 122°36'0 0.0
2015-Mar-20 10:29N 48°31' W 122°36'0 0.0
2015-Mar-20 09:32N 48°31' W 122°36'0 0.0
2015-Mar-20 08:29N 48°31' W 122°36'0 0.0
2015-Mar-20 07:29N 48°31' W 122°36'0 0.0
2015-Mar-20 06:18N 48°31' W 122°36'0 0.0
2015-Mar-20 05:29N 48°31' W 122°36'0 0.0
2015-Mar-20 04:29N 48°31' W 122°36'0 0.0
2015-Mar-20 03:29N 48°31' W 122°36'0 0.0
2015-Mar-20 02:26N 48°31' W 122°36'0 0.0
2015-Mar-20 01:23N 48°31' W 122°36'0 0.0
2015-Mar-20 00:17N 48°31' W 122°36'0 0.5
2015-Mar-19 23:33N 48°31' W 122°37'3 3.4
2015-Mar-19 22:34N 48°33' W 122°41'0 0.2
2015-Mar-19 21:34N 48°33' W 122°41'0 0.0
2015-Mar-19 20:34N 48°33' W 122°41'0 0.2
2015-Mar-19 19:34N 48°33' W 122°41'2 2.4
2015-Mar-19 18:34N 48°32' W 122°39'1 1.1
2015-Mar-19 17:34N 48°31' W 122°37'0 0.0
2015-Mar-19 16:34N 48°31' W 122°37'0 0.3
2015-Mar-19 15:31N 48°31' W 122°36'0 0.0
2015-Mar-19 14:31N 48°31' W 122°36'0 0.0
2015-Mar-19 13:31N 48°31' W 122°36'0 0.0
2015-Mar-19 12:31N 48°31' W 122°36'0 0.0
2015-Mar-19 11:31N 48°31' W 122°36'0 0.0
2015-Mar-19 10:25N 48°31' W 122°36'0 0.0
2015-Mar-19 09:25N 48°31' W 122°36'0 0.0
2015-Mar-19 08:31N 48°31' W 122°36'0 0.0
2015-Mar-19 07:31N 48°31' W 122°36'0 0.0
2015-Mar-19 06:31N 48°31' W 122°36'0 0.0
2015-Mar-19 05:31N 48°31' W 122°36'0 0.0
2015-Mar-19 04:31N 48°31' W 122°36'0 0.0
2015-Mar-19 03:31N 48°31' W 122°36'0 0.0
2015-Mar-19 02:31N 48°31' W 122°36'0 0.0
2015-Mar-19 01:31N 48°31' W 122°36'0 0.0
2015-Mar-19 00:31N 48°31' W 122°36'7 6.9
2015-Mar-18 23:33N 48°32' W 122°46'7 7.4
2015-Mar-18 22:33N 48°32' W 122°58'3 3.3
2015-Mar-18 21:33N 48°34' W 122°53'9 8.8
2015-Mar-18 20:33N 48°31' W 122°41'2 2.1
2015-Mar-18 19:33N 48°31' W 122°38'7 7.4
2015-Mar-18 18:33N 48°33' W 122°49'0 0.4
2015-Mar-18 17:33N 48°33' W 122°49'8 8.4
2015-Mar-18 16:33N 48°31' W 122°37'0 0.4
2015-Mar-18 15:33N 48°31' W 122°36'0 0.0
2015-Mar-18 14:33N 48°31' W 122°36'0 0.0
2015-Mar-18 13:33N 48°31' W 122°36'0 0.0
2015-Mar-18 12:33N 48°31' W 122°36'0 0.0
2015-Mar-18 11:33N 48°31' W 122°36'0 0.0
2015-Mar-18 10:33N 48°31' W 122°36'0 0.0
2015-Mar-18 09:33N 48°31' W 122°36'0 0.0
2015-Mar-18 08:33N 48°31' W 122°36'0 0.0
2015-Mar-18 07:33N 48°31' W 122°36'0 0.0
2015-Mar-18 06:33N 48°31' W 122°36'0 0.0
2015-Mar-18 05:33N 48°31' W 122°36'0 0.0
2015-Mar-18 04:33N 48°31' W 122°36'0 0.0
2015-Mar-18 03:33N 48°31' W 122°36'0 0.0
2015-Mar-18 02:27N 48°31' W 122°36'0 0.0
2015-Mar-18 01:27N 48°31' W 122°36'  

Dump ship's entire track history